createdAt,value
2022-12-06T00:01:25.330Z,4.05
2022-12-06T00:03:54.247Z,2.92
2022-12-06T00:06:22.997Z,3.67
2022-12-06T00:08:50.720Z,4.70
2022-12-06T00:11:20.634Z,3.85
2022-12-06T00:13:48.008Z,2.80
2022-12-06T00:16:16.854Z,4.10
2022-12-06T00:18:45.148Z,2.65
2022-12-06T00:21:22.092Z,3.40
2022-12-06T00:23:54.026Z,7.40
2022-12-06T00:26:21.391Z,3.97
2022-12-06T00:28:48.371Z,3.88
2022-12-06T00:31:20.376Z,2.92
2022-12-06T00:33:47.745Z,4.30
2022-12-06T00:36:17.880Z,3.40
2022-12-06T00:38:45.182Z,6.28
2022-12-06T00:41:14.486Z,4.57
2022-12-06T00:43:41.471Z,3.78
2022-12-06T00:46:11.869Z,4.18
2022-12-06T00:48:38.482Z,4.97
2022-12-06T00:51:05.403Z,4.78
2022-12-06T00:53:32.059Z,3.83
2022-12-06T00:55:58.603Z,5.50
2022-12-06T00:58:25.482Z,3.58
2022-12-06T01:00:52.214Z,3.67
2022-12-06T01:03:19.114Z,4.80
2022-12-06T01:05:49.068Z,3.83
2022-12-06T01:08:17.332Z,3.08
2022-12-06T01:10:54.888Z,4.40
2022-12-06T01:13:21.718Z,4.63
2022-12-06T01:15:49.922Z,5.18
2022-12-06T01:18:16.482Z,4.20
2022-12-06T01:20:43.128Z,4.72
2022-12-06T01:23:09.672Z,4.22
2022-12-06T01:25:36.735Z,4.97
2022-12-06T01:28:03.720Z,3.33
2022-12-06T01:30:30.535Z,3.47
2022-12-06T01:32:57.175Z,4.35
2022-12-06T01:35:23.765Z,4.95
2022-12-06T01:37:50.320Z,5.40
2022-12-06T01:40:16.977Z,3.13
2022-12-06T01:42:43.538Z,3.05
2022-12-06T01:45:10.531Z,4.05
2022-12-06T01:47:40.870Z,4.85
2022-12-06T01:50:24.893Z,3.45
2022-12-06T01:52:57.507Z,6.15
2022-12-06T01:55:27.968Z,4.50
2022-12-06T01:58:00.720Z,5.85
2022-12-06T02:00:27.306Z,3.67
2022-12-06T02:02:55.844Z,5.00
2022-12-06T02:05:22.455Z,4.88
2022-12-06T02:07:49.470Z,5.93
2022-12-06T02:10:16.457Z,5.57
2022-12-06T02:12:43.349Z,5.68
2022-12-06T02:15:10.579Z,6.60
2022-12-06T02:18:05.671Z,5.38
2022-12-06T02:20:39.679Z,5.35
2022-12-06T02:23:18.112Z,5.50
2022-12-06T02:25:44.642Z,4.93
2022-12-06T02:28:26.586Z,6.75
2022-12-06T02:33:25.411Z,4.53
2022-12-06T02:36:05.660Z,6.03
2022-12-06T02:38:35.075Z,5.93
2022-12-06T02:41:09.952Z,6.22
2022-12-06T02:43:48.358Z,5.55
2022-12-06T02:46:19.843Z,5.80
2022-12-06T02:48:52.134Z,9.10
2022-12-06T02:51:20.671Z,5.03
2022-12-06T02:53:52.030Z,6.10
2022-12-06T02:56:19.842Z,4.95
2022-12-06T02:58:46.891Z,3.50
2022-12-06T03:01:34.862Z,5.18
2022-12-06T03:04:07.406Z,3.90
2022-12-06T03:06:56.008Z,4.63
2022-12-06T03:10:03.812Z,4.38
2022-12-06T03:12:45.815Z,4.47
2022-12-06T03:15:51.869Z,3.30
2022-12-06T03:18:20.175Z,5.10
2022-12-06T03:20:52.689Z,3.65
2022-12-06T03:23:27.930Z,2.53
2022-12-06T03:25:58.578Z,5.03
2022-12-06T03:28:26.442Z,5.45
2022-12-06T03:30:57.722Z,5.38
2022-12-06T03:33:28.011Z,6.25
2022-12-06T03:35:57.719Z,4.03
2022-12-06T03:38:52.973Z,3.70
2022-12-06T03:41:21.956Z,5.32
2022-12-06T03:43:48.541Z,2.95
2022-12-06T03:46:19.137Z,5.45
2022-12-06T03:48:53.281Z,4.57
2022-12-06T03:51:28.294Z,4.40
2022-12-06T03:53:58.974Z,5.97
2022-12-06T03:56:27.927Z,4.15
2022-12-06T03:58:54.615Z,3.58
2022-12-06T04:01:21.304Z,4.85
2022-12-06T04:03:48.102Z,4.20
2022-12-06T04:06:15.162Z,3.90
2022-12-06T04:08:41.780Z,7.28
2022-12-06T04:11:08.356Z,6.32
2022-12-06T04:13:35.753Z,4.70
2022-12-06T04:16:02.467Z,3.83
2022-12-06T04:18:29.577Z,4.18
2022-12-06T04:21:20.508Z,5.60
2022-12-06T04:23:51.925Z,5.80
2022-12-06T04:26:20.988Z,4.75
2022-12-06T04:29:07.094Z,5.65
2022-12-06T04:31:52.192Z,6.25
2022-12-06T04:34:37.560Z,6.78
2022-12-06T04:37:23.073Z,7.78
2022-12-06T04:39:49.865Z,5.82
2022-12-06T04:42:35.541Z,5.82
2022-12-06T04:45:02.388Z,5.72
2022-12-06T04:47:29.189Z,6.90
2022-12-06T04:49:55.754Z,6.18
2022-12-06T04:52:22.424Z,6.00
2022-12-06T04:54:49.027Z,9.30
2022-12-06T04:57:16.764Z,7.95
2022-12-06T04:59:46.144Z,5.90
2022-12-06T05:02:15.012Z,8.30
2022-12-06T05:04:41.921Z,9.23
2022-12-06T05:07:09.844Z,7.00
2022-12-06T05:09:36.435Z,10.90
2022-12-06T05:12:03.042Z,8.18
2022-12-06T05:14:29.633Z,9.15
2022-12-06T05:16:56.233Z,9.80
2022-12-06T05:19:22.913Z,11.13
2022-12-06T05:21:49.449Z,10.60
2022-12-06T05:24:16.176Z,9.48
2022-12-06T05:26:42.948Z,9.68
2022-12-06T05:29:09.824Z,14.18
2022-12-06T05:31:36.387Z,10.57
2022-12-06T05:34:03.038Z,9.48
2022-12-06T05:36:29.620Z,10.70
2022-12-06T05:38:56.368Z,8.50
2022-12-06T05:41:23.243Z,11.20
2022-12-06T05:43:50.335Z,13.05
2022-12-06T05:46:17.673Z,10.90
2022-12-06T05:48:44.762Z,11.48
2022-12-06T05:51:11.499Z,10.77
2022-12-06T05:53:38.112Z,11.25
2022-12-06T05:56:06.769Z,8.93
2022-12-06T05:58:33.470Z,10.40
2022-12-06T06:01:00.074Z,12.95
2022-12-06T06:03:27.116Z,8.45
2022-12-06T06:05:58.308Z,14.80
2022-12-06T06:08:25.119Z,10.77
2022-12-06T06:10:51.695Z,11.43
2022-12-06T06:13:18.300Z,9.65
2022-12-06T06:15:44.949Z,10.77
2022-12-06T06:18:11.511Z,11.38
2022-12-06T06:20:38.072Z,10.95
2022-12-06T06:23:04.644Z,9.57
2022-12-06T06:25:31.191Z,8.25
2022-12-06T06:27:57.877Z,10.43
2022-12-06T06:30:24.421Z,13.75
2022-12-06T06:32:51.009Z,11.80
2022-12-06T06:35:17.628Z,11.95
2022-12-06T06:37:44.251Z,14.95
2022-12-06T06:40:11.454Z,9.90
2022-12-06T06:42:38.544Z,10.15
2022-12-06T06:45:06.353Z,13.48
2022-12-06T06:47:32.922Z,10.18
2022-12-06T06:49:59.661Z,12.63
2022-12-06T06:52:26.404Z,10.35
2022-12-06T06:54:53.283Z,13.07
2022-12-06T06:57:20.041Z,9.52
2022-12-06T06:59:46.937Z,9.85
2022-12-06T07:02:14.875Z,10.13
2022-12-06T07:04:42.361Z,12.98
2022-12-06T07:07:09.215Z,10.13
2022-12-06T07:09:35.883Z,12.10
2022-12-06T07:12:02.414Z,10.70
2022-12-06T07:14:29.194Z,8.57
2022-12-06T07:16:55.820Z,10.25
2022-12-06T07:19:22.439Z,9.23
2022-12-06T07:21:49.159Z,14.30
2022-12-06T07:24:15.729Z,10.10
2022-12-06T07:26:42.370Z,10.18
2022-12-06T07:29:08.963Z,12.93
2022-12-06T07:31:35.732Z,16.90
2022-12-06T07:34:03.382Z,12.77
2022-12-06T07:36:32.111Z,11.90
2022-12-06T07:39:00.065Z,9.63
2022-12-06T07:41:47.601Z,11.88
2022-12-06T07:44:55.469Z,8.88
2022-12-06T07:47:24.898Z,10.35
2022-12-06T07:49:54.341Z,10.00
2022-12-06T07:52:20.902Z,14.10
2022-12-06T07:54:47.483Z,12.50
2022-12-06T07:57:14.079Z,12.43
2022-12-06T07:59:40.664Z,12.52
2022-12-06T08:02:16.628Z,13.10
2022-12-06T08:04:43.398Z,14.68
2022-12-06T08:07:10.300Z,10.88
2022-12-06T08:09:36.936Z,13.50
2022-12-06T08:12:03.625Z,12.80
2022-12-06T08:14:30.419Z,8.52
2022-12-06T08:16:56.957Z,8.77
2022-12-06T08:19:23.492Z,8.90
2022-12-06T08:21:50.228Z,8.50
2022-12-06T08:24:16.896Z,4.85
2022-12-06T08:26:43.714Z,4.63
2022-12-06T08:29:10.358Z,8.68
2022-12-06T08:31:37.082Z,6.13
2022-12-06T08:34:04.444Z,4.78
2022-12-06T08:36:31.305Z,3.78
2022-12-06T08:39:00.296Z,6.65
2022-12-06T08:41:45.880Z,5.38
2022-12-06T08:44:14.361Z,5.50
2022-12-06T08:46:41.349Z,5.43
2022-12-06T08:49:08.175Z,6.30
2022-12-06T08:51:36.826Z,5.28
2022-12-06T08:54:04.317Z,4.85
2022-12-06T08:56:31.301Z,5.53
2022-12-06T08:58:58.177Z,5.60
2022-12-06T09:01:35.939Z,6.57
2022-12-06T09:04:06.351Z,3.80
2022-12-06T09:06:33.350Z,4.65
2022-12-06T09:08:59.873Z,5.32
2022-12-06T09:11:26.929Z,7.50
2022-12-06T09:13:53.522Z,5.88
2022-12-06T09:16:22.609Z,5.78
2022-12-06T09:18:51.557Z,5.45
2022-12-06T09:21:21.652Z,3.58
2022-12-06T09:23:48.302Z,6.03
2022-12-06T09:26:14.965Z,6.20
2022-12-06T09:28:43.516Z,5.93
2022-12-06T09:31:10.973Z,5.43
2022-12-06T09:33:37.697Z,6.35
2022-12-06T09:36:13.057Z,5.30
2022-12-06T09:38:42.462Z,4.10
2022-12-06T09:41:22.162Z,6.18
2022-12-06T09:44:07.230Z,6.28
2022-12-06T09:46:42.877Z,5.38
2022-12-06T09:49:26.203Z,5.03
2022-12-06T09:52:11.518Z,5.40
2022-12-06T09:54:38.892Z,5.70
2022-12-06T09:57:16.896Z,4.35
2022-12-06T10:00:11.267Z,3.95
2022-12-06T10:02:59.833Z,5.35
2022-12-06T10:05:41.329Z,4.53
2022-12-06T10:08:32.730Z,5.40
2022-12-06T10:11:16.203Z,9.50
2022-12-06T10:13:56.553Z,3.63
2022-12-06T10:16:48.086Z,3.78
2022-12-06T10:19:45.525Z,3.90
2022-12-06T10:22:26.963Z,5.15
2022-12-06T10:25:20.082Z,5.00
2022-12-06T10:27:57.926Z,5.70
2022-12-06T10:30:24.621Z,3.80
2022-12-06T10:33:05.676Z,4.80
2022-12-06T10:35:35.386Z,5.50
2022-12-06T10:38:34.516Z,6.85
2022-12-06T10:41:33.336Z,6.10
2022-12-06T10:44:15.135Z,4.55
2022-12-06T10:47:06.628Z,2.58
2022-12-06T10:49:39.496Z,2.75
2022-12-06T10:52:24.435Z,2.42
2022-12-06T10:55:02.606Z,2.15
2022-12-06T10:57:37.762Z,5.63
2022-12-06T11:00:15.022Z,2.45
2022-12-06T11:02:51.322Z,4.63
2022-12-06T11:05:26.020Z,1.55
2022-12-06T11:08:00.923Z,2.88
2022-12-06T11:10:31.597Z,1.25
2022-12-06T11:13:16.643Z,2.55
2022-12-06T11:15:51.258Z,2.25
2022-12-06T11:18:18.385Z,2.47
2022-12-06T11:20:58.684Z,3.47
2022-12-06T11:23:51.054Z,3.53
2022-12-06T11:26:37.541Z,4.80
2022-12-06T11:29:10.048Z,2.55
2022-12-06T11:31:47.220Z,1.60
2022-12-06T11:34:17.141Z,0.88
2022-12-06T11:36:46.667Z,2.03
2022-12-06T11:39:14.785Z,0.60
2022-12-06T11:41:43.687Z,2.15
2022-12-06T11:44:18.656Z,1.25
2022-12-06T11:46:49.948Z,2.03
2022-12-06T11:49:32.621Z,1.83
2022-12-06T11:52:04.146Z,2.13
2022-12-06T11:54:38.788Z,2.88
2022-12-06T11:57:22.226Z,2.85
2022-12-06T12:00:07.822Z,4.00
2022-12-06T12:02:40.413Z,2.60
2022-12-06T12:05:19.650Z,2.33
2022-12-06T12:07:58.111Z,1.80
2022-12-06T12:10:24.759Z,1.30
2022-12-06T12:13:10.029Z,3.13
2022-12-06T12:15:37.366Z,1.42
2022-12-06T12:18:05.638Z,3.53
2022-12-06T12:20:38.594Z,2.58
2022-12-06T12:23:22.587Z,3.33
2022-12-06T12:26:10.140Z,2.28
2022-12-06T12:28:38.643Z,1.80
2022-12-06T12:31:15.929Z,1.92
2022-12-06T12:33:42.525Z,4.15
2022-12-06T12:36:16.418Z,1.20
2022-12-06T12:38:56.177Z,3.20
2022-12-06T12:41:39.376Z,1.83
2022-12-06T12:44:42.441Z,3.75
2022-12-06T12:47:20.236Z,3.67
2022-12-06T12:50:02.185Z,1.83
2022-12-06T12:52:31.554Z,2.20
2022-12-06T12:55:18.622Z,3.88
2022-12-06T12:57:48.834Z,2.42
2022-12-06T13:00:22.138Z,2.75
2022-12-06T13:03:01.857Z,2.95
2022-12-06T13:05:33.943Z,1.75
2022-12-06T13:08:13.059Z,4.95
2022-12-06T13:10:43.223Z,7.32
2022-12-06T13:13:16.984Z,2.28
2022-12-06T13:15:50.639Z,2.13
2022-12-06T13:18:23.050Z,1.42
2022-12-06T13:20:51.503Z,2.58
2022-12-06T13:23:21.899Z,5.07
2022-12-06T13:25:59.936Z,2.10
2022-12-06T13:28:31.534Z,4.65
2022-12-06T13:31:07.311Z,3.58
2022-12-06T13:33:39.075Z,2.75
2022-12-06T13:38:39.229Z,1.33
2022-12-06T13:41:13.878Z,2.08
2022-12-06T13:43:40.416Z,3.00
2022-12-06T13:46:07.311Z,2.72
2022-12-06T13:48:37.896Z,2.22
2022-12-06T13:51:04.552Z,2.97
2022-12-06T13:53:35.920Z,1.35
2022-12-06T13:56:24.101Z,4.22
2022-12-06T13:58:58.808Z,4.03
2022-12-06T14:01:44.836Z,3.08
2022-12-06T14:04:23.711Z,2.47
2022-12-06T14:06:52.978Z,3.50
2022-12-06T14:09:20.165Z,4.20
2022-12-06T14:11:46.840Z,4.25
2022-12-06T14:14:17.656Z,27.98
2022-12-06T14:16:54.259Z,4.33
2022-12-06T14:19:50.258Z,3.65
2022-12-06T14:22:26.723Z,1.17
2022-12-06T14:24:58.655Z,1.65
2022-12-06T14:27:27.546Z,1.77
2022-12-06T14:30:06.488Z,1.55
2022-12-06T14:32:38.383Z,1.63
2022-12-06T14:35:10.389Z,1.80
2022-12-06T14:37:37.146Z,3.20
2022-12-06T14:40:44.697Z,1.88
2022-12-06T14:43:17.156Z,7.25
2022-12-06T14:45:45.218Z,2.80
2022-12-06T14:48:12.961Z,3.30
2022-12-06T14:50:56.580Z,1.17
2022-12-06T14:53:33.247Z,2.70
2022-12-06T14:56:20.260Z,2.95
2022-12-06T14:58:47.093Z,2.80
2022-12-06T15:01:23.452Z,2.47
2022-12-06T15:04:05.349Z,3.03
2022-12-06T15:08:59.481Z,2.20
2022-12-06T15:11:53.883Z,1.88
2022-12-06T15:14:27.644Z,2.67
2022-12-06T15:17:04.704Z,2.25
2022-12-06T15:19:34.651Z,2.33
2022-12-06T15:22:01.587Z,5.93
2022-12-06T15:24:28.989Z,3.78
2022-12-06T15:26:55.653Z,5.65
2022-12-06T15:29:23.297Z,2.97
2022-12-06T15:31:54.844Z,3.30
2022-12-06T15:34:27.748Z,1.70
2022-12-06T15:37:15.189Z,2.33
2022-12-06T15:39:43.023Z,2.85
2022-12-06T15:42:23.738Z,2.47
2022-12-06T15:44:51.263Z,2.83
2022-12-06T15:47:21.001Z,2.55
2022-12-06T15:49:48.945Z,3.35
2022-12-06T15:52:17.908Z,4.50
2022-12-06T15:54:44.910Z,6.20
2022-12-06T15:57:11.586Z,6.18
2022-12-06T15:59:38.118Z,5.55
2022-12-06T16:02:15.443Z,2.65
2022-12-06T16:04:43.122Z,3.20
2022-12-06T16:07:10.635Z,3.97
2022-12-06T16:09:37.536Z,4.30
2022-12-06T16:12:04.392Z,2.90
2022-12-06T16:14:30.977Z,3.72
2022-12-06T16:16:57.551Z,2.83
2022-12-06T16:19:24.141Z,2.90
2022-12-06T16:21:53.779Z,3.65
2022-12-06T16:24:20.726Z,2.67
2022-12-06T16:26:48.063Z,3.13
2022-12-06T16:29:23.369Z,2.05
2022-12-06T16:31:51.430Z,2.95
2022-12-06T16:34:18.260Z,2.85
2022-12-06T16:37:06.631Z,3.20
2022-12-06T16:39:34.216Z,4.03
2022-12-06T16:42:01.592Z,2.58
2022-12-06T16:44:28.541Z,2.78
2022-12-06T16:46:55.229Z,4.03
2022-12-06T16:52:13.671Z,3.53
2022-12-06T16:54:41.386Z,3.83
2022-12-06T16:57:10.158Z,3.33
2022-12-06T16:59:37.119Z,6.60
2022-12-06T17:02:07.209Z,4.28
2022-12-06T17:04:38.187Z,4.10
2022-12-06T17:07:04.726Z,6.45
2022-12-06T17:09:31.276Z,5.05
2022-12-06T17:12:04.333Z,5.68
2022-12-06T17:14:30.920Z,8.60
2022-12-06T17:17:00.176Z,6.25
2022-12-06T17:19:28.270Z,42.65
2022-12-06T17:21:55.557Z,70.32
2022-12-06T17:24:23.818Z,36.17
2022-12-06T17:26:50.518Z,5.65
2022-12-06T17:29:17.562Z,3.80
2022-12-06T17:31:44.336Z,3.97
2022-12-06T17:34:14.266Z,6.10
2022-12-06T17:36:41.808Z,5.35
2022-12-06T17:39:15.516Z,4.88
2022-12-06T17:42:00.620Z,5.53
2022-12-06T17:44:27.417Z,5.57
2022-12-06T17:46:54.196Z,3.80
2022-12-06T17:49:23.145Z,5.32
2022-12-06T17:51:50.382Z,21.52
2022-12-06T17:54:18.031Z,8.90
2022-12-06T17:56:46.937Z,33.22
2022-12-06T17:59:19.724Z,27.17
2022-12-06T18:04:34.400Z,37.45
2022-12-06T18:07:00.919Z,20.02
2022-12-06T18:09:27.604Z,11.10
2022-12-06T18:11:55.633Z,11.75
2022-12-06T18:14:22.254Z,16.17
2022-12-06T18:16:48.953Z,21.40
2022-12-06T18:19:17.938Z,24.55
2022-12-06T18:21:45.007Z,16.60
2022-12-06T18:24:23.900Z,10.32
2022-12-06T18:26:53.319Z,13.70
2022-12-06T18:29:22.944Z,13.45
2022-12-06T18:31:50.370Z,15.38
2022-12-06T18:34:17.666Z,10.85
2022-12-06T18:36:44.297Z,9.70
2022-12-06T18:39:16.558Z,12.88
2022-12-06T18:41:44.451Z,16.80
2022-12-06T18:44:12.448Z,13.80
2022-12-06T18:46:42.260Z,14.52
2022-12-06T18:49:11.096Z,18.63
2022-12-06T18:51:38.776Z,26.85
2022-12-06T18:54:06.587Z,21.63
2022-12-06T18:56:34.562Z,13.32
2022-12-06T18:59:04.039Z,23.67
2022-12-06T19:01:36.865Z,26.92
2022-12-06T19:04:05.713Z,42.03
2022-12-06T19:06:35.261Z,37.55
2022-12-06T19:09:09.407Z,31.83
2022-12-06T19:11:38.401Z,41.88
2022-12-06T19:14:05.120Z,34.28
2022-12-06T19:16:37.560Z,15.07
2022-12-06T19:19:11.280Z,9.75
2022-12-06T19:21:39.505Z,8.57
2022-12-06T19:24:06.441Z,6.65
2022-12-06T19:26:33.928Z,8.50
2022-12-06T19:29:00.523Z,7.90
2022-12-06T19:31:27.152Z,7.38
2022-12-06T19:33:54.263Z,11.73
2022-12-06T19:36:28.626Z,9.25
2022-12-06T19:38:57.142Z,7.53
2022-12-06T19:41:24.004Z,9.40
2022-12-06T19:44:09.160Z,8.68
2022-12-06T19:46:36.062Z,7.15
2022-12-06T19:49:06.452Z,8.70
2022-12-06T19:51:37.848Z,7.90
2022-12-06T19:54:04.931Z,10.75
2022-12-06T19:56:31.669Z,11.40
2022-12-06T19:58:59.298Z,7.65
2022-12-06T20:01:29.926Z,5.55
2022-12-06T20:03:57.147Z,6.00
2022-12-06T20:06:26.339Z,8.50
2022-12-06T20:08:55.471Z,7.70
2022-12-06T20:11:42.178Z,8.05
2022-12-06T20:14:11.274Z,8.18
2022-12-06T20:16:38.256Z,6.55
2022-12-06T20:19:07.364Z,10.48
2022-12-06T20:21:35.030Z,6.75
2022-12-06T20:24:02.435Z,5.38
2022-12-06T20:26:31.274Z,8.95
2022-12-06T20:28:58.630Z,8.27
2022-12-06T20:31:27.811Z,9.95
2022-12-06T20:34:02.905Z,8.20
2022-12-06T20:36:31.850Z,9.88
2022-12-06T20:38:59.570Z,10.25
2022-12-06T20:41:30.049Z,11.65
2022-12-06T20:43:57.527Z,12.98
2022-12-06T20:46:28.042Z,10.45
2022-12-06T20:48:55.842Z,10.15
2022-12-06T20:51:27.239Z,11.65
2022-12-06T20:53:59.349Z,10.75
2022-12-06T20:56:29.404Z,13.93
2022-12-06T20:58:57.851Z,8.70
2022-12-06T21:01:26.900Z,9.30
2022-12-06T21:03:54.973Z,10.85
2022-12-06T21:06:24.000Z,9.80
2022-12-06T21:08:51.492Z,12.82
2022-12-06T21:11:24.007Z,9.02
2022-12-06T21:13:55.695Z,11.27
2022-12-06T21:16:27.985Z,9.40
2022-12-06T21:19:16.695Z,10.52
2022-12-06T21:21:53.296Z,9.00
2022-12-06T21:24:21.689Z,12.63
2022-12-06T21:26:49.074Z,13.00
2022-12-06T21:29:18.172Z,11.07
2022-12-06T21:31:45.634Z,8.38
2022-12-06T21:34:15.717Z,10.32
2022-12-06T21:36:42.839Z,12.73
2022-12-06T21:39:12.085Z,7.97
2022-12-06T21:41:39.056Z,10.18
2022-12-06T21:44:06.673Z,9.38
2022-12-06T21:46:33.390Z,8.80
2022-12-06T21:49:00.664Z,9.52
2022-12-06T21:51:29.605Z,11.82
2022-12-06T21:53:56.811Z,12.90
2022-12-06T21:56:28.964Z,10.43
2022-12-06T21:58:55.995Z,9.05
2022-12-06T22:01:27.754Z,11.82
2022-12-06T22:03:57.093Z,14.15
2022-12-06T22:06:24.619Z,9.65
2022-12-06T22:09:04.177Z,12.35
2022-12-06T22:11:31.140Z,9.55
2022-12-06T22:13:59.995Z,12.32
2022-12-06T22:16:27.908Z,9.48
2022-12-06T22:18:55.252Z,11.73
2022-12-06T22:21:25.687Z,10.35
2022-12-06T22:23:53.020Z,11.48
2022-12-06T22:26:21.920Z,9.90
2022-12-06T22:28:48.793Z,13.30
2022-12-06T22:31:16.886Z,11.45
2022-12-06T22:33:43.986Z,8.63
2022-12-06T22:36:11.781Z,12.48
2022-12-06T22:38:38.569Z,11.27
2022-12-06T22:41:05.969Z,12.05
2022-12-06T22:43:32.950Z,8.77
2022-12-06T22:46:08.741Z,12.68
2022-12-06T22:48:35.922Z,9.77
2022-12-06T22:51:12.939Z,12.48
2022-12-06T22:53:41.499Z,13.30
2022-12-06T22:56:08.934Z,10.30
2022-12-06T22:58:35.998Z,8.90
2022-12-06T23:01:16.111Z,11.80
2022-12-06T23:03:45.375Z,8.65
2022-12-06T23:06:12.835Z,8.70
2022-12-06T23:08:39.719Z,9.25
2022-12-06T23:11:13.482Z,7.47
2022-12-06T23:13:40.759Z,12.02
2022-12-06T23:16:10.744Z,12.68
2022-12-06T23:18:37.544Z,10.50
2022-12-06T23:21:10.813Z,7.47
2022-12-06T23:23:39.132Z,12.68
2022-12-06T23:26:08.560Z,10.35
2022-12-06T23:28:35.557Z,9.40
2022-12-06T23:31:07.544Z,12.60
2022-12-06T23:33:34.597Z,9.60
2022-12-06T23:36:03.326Z,7.13
2022-12-06T23:38:29.971Z,8.68
2022-12-06T23:41:02.121Z,11.55
2022-12-06T23:43:28.662Z,11.82
2022-12-06T23:45:58.552Z,9.52
2022-12-06T23:48:27.907Z,11.23
2022-12-06T23:51:02.874Z,9.68
2022-12-06T23:53:30.911Z,9.07
2022-12-06T23:56:04.542Z,9.50
2022-12-06T23:58:31.271Z,8.23
